Time;durP1;ratioP1;P1;durP2;ratioP2;P2;SDS_P1;SDS_P2;PMS_P1;PMS_P2;Temp;Humidity;BMP_temperature;BMP_pressure;BME280_temperature;BME280_humidity;BME280_pressure;Samples;Min_cycle;Max_cycle;Signal;HPM_P1;HPM_P2
2021/09/12 00:01:01;;;;;;;6.57;5.97;;;22.20;59.50;;;;;;5051222;28;20532;-71
2021/09/12 00:03:27;;;;;;;9.43;7.40;;;22.20;59.60;;;;;;5051912;28;20032;-71
2021/09/12 00:05:53;;;;;;;9.20;6.85;;;22.20;60.00;;;;;;5050967;28;20033;-71
2021/09/12 00:08:19;;;;;;;7.18;6.47;;;22.20;59.70;;;;;;5034074;28;20071;-71
2021/09/12 00:10:45;;;;;;;7.63;6.82;;;22.20;59.70;;;;;;5051817;28;20040;-71
2021/09/12 00:13:11;;;;;;;8.98;6.20;;;22.20;59.80;;;;;;5033828;28;20075;-71
2021/09/12 00:15:36;;;;;;;6.65;5.95;;;22.20;59.70;;;;;;5051669;28;20051;-71
2021/09/12 00:18:02;;;;;;;9.95;7.78;;;22.20;59.70;;;;;;5051875;28;20036;-71
2021/09/12 00:20:28;;;;;;;7.68;6.90;;;22.20;60.00;;;;;;5051559;28;20025;-71
2021/09/12 00:22:54;;;;;;;10.50;7.95;;;22.20;60.30;;;;;;5051753;28;20033;-71
2021/09/12 00:25:19;;;;;;;8.05;7.10;;;22.20;60.20;;;;;;5051766;28;20381;-71
2021/09/12 00:27:45;;;;;;;7.35;6.35;;;22.20;60.20;;;;;;5051661;28;20024;-71
2021/09/12 00:30:12;;;;;;;10.85;6.78;;;22.20;60.80;;;;;;5051283;28;20029;-71
2021/09/12 00:32:38;;;;;;;8.73;6.43;;;22.20;60.00;;;;;;5035066;28;20075;-71
2021/09/12 00:35:05;;;;;;;7.28;6.38;;;22.20;60.00;;;;;;5051649;28;20489;-71
2021/09/12 00:37:31;;;;;;;8.23;6.93;;;22.20;60.00;;;;;;5051155;28;20018;-71
2021/09/12 00:39:57;;;;;;;9.25;7.65;;;22.20;60.00;;;;;;5051396;28;20071;-71
2021/09/12 00:42:22;;;;;;;13.68;7.10;;;22.20;60.30;;;;;;5051409;28;20390;-71
2021/09/12 00:44:48;;;;;;;10.98;6.85;;;22.20;60.40;;;;;;5051351;28;20386;-71
2021/09/12 00:47:14;;;;;;;9.43;7.40;;;22.20;60.10;;;;;;5051690;28;20401;-71
2021/09/12 00:49:42;;;;;;;8.85;6.63;;;22.10;60.10;;;;;;5051150;28;20021;-71
2021/09/12 00:52:10;;;;;;;10.63;7.32;;;22.20;60.10;;;;;;5051129;28;20025;-71
2021/09/12 00:54:37;;;;;;;8.85;6.68;;;22.10;60.20;;;;;;5054554;28;20029;-71
2021/09/12 00:57:09;;;;;;;13.13;7.50;;;22.10;60.10;;;;;;5039034;28;20036;-71
2021/09/12 00:59:37;;;;;;;13.52;8.13;;;22.10;60.40;;;;;;5055165;28;20032;-71
2021/09/12 01:02:08;;;;;;;9.43;7.32;;;22.10;60.50;;;;;;5054989;28;20025;-71
2021/09/12 01:04:35;;;;;;;11.68;7.38;;;22.10;60.90;;;;;;5055177;28;20024;-75
2021/09/12 01:07:02;;;;;;;10.68;8.50;;;22.10;61.00;;;;;;5055055;28;20497;-71
2021/09/12 01:09:29;;;;;;;12.25;8.10;;;22.00;61.00;;;;;;5055253;28;20535;-71
2021/09/12 01:12:00;;;;;;;8.63;7.47;;;22.10;61.00;;;;;;5054662;28;20017;-72
2021/09/12 01:14:27;;;;;;;15.98;7.57;;;22.00;60.90;;;;;;5054865;28;20504;-70
2021/09/12 01:16:53;;;;;;;10.20;7.03;;;22.00;60.70;;;;;;5054779;28;20509;-70
2021/09/12 01:19:20;;;;;;;10.10;7.72;;;22.00;60.70;;;;;;5054918;28;20025;-71
2021/09/12 01:21:46;;;;;;;7.80;7.00;;;22.00;60.80;;;;;;5052616;28;20033;-71
2021/09/12 01:24:12;;;;;;;9.35;7.82;;;22.00;60.80;;;;;;5055266;28;20061;-71
2021/09/12 01:26:38;;;;;;;9.38;7.53;;;22.00;60.80;;;;;;5054967;28;20103;-70
2021/09/12 01:29:04;;;;;;;19.58;7.95;;;22.00;60.90;;;;;;5054238;28;20029;-70
2021/09/12 01:31:33;;;;;;;10.73;7.43;;;21.90;60.90;;;;;;5054621;28;20552;-72
2021/09/12 01:34:00;;;;;;;8.40;7.00;;;21.90;60.90;;;;;;5054333;28;20115;-71
2021/09/12 01:36:28;;;;;;;8.60;7.13;;;21.90;60.80;;;;;;5054561;28;20052;-71
2021/09/12 01:38:54;;;;;;;15.10;6.65;;;22.00;61.00;;;;;;5054545;28;20028;-71
2021/09/12 01:41:20;;;;;;;7.47;6.38;;;21.90;60.90;;;;;;5051711;28;20053;-70
2021/09/12 01:43:55;;;;;;;8.98;7.18;;;21.90;60.90;;;;;;5043386;28;20065;-71
2021/09/12 01:46:22;;;;;;;9.30;7.70;;;21.90;61.30;;;;;;5054018;28;20031;-71
2021/09/12 01:48:48;;;;;;;8.60;6.25;;;21.90;61.10;;;;;;5053793;28;20021;-70
2021/09/12 01:51:14;;;;;;;9.50;7.50;;;21.80;61.00;;;;;;5054235;28;20024;-71
2021/09/12 01:53:40;;;;;;;8.05;6.80;;;21.80;61.20;;;;;;5054371;28;20025;-71
2021/09/12 01:56:06;;;;;;;10.38;6.60;;;21.80;61.30;;;;;;5053965;28;20049;-71
2021/09/12 01:58:32;;;;;;;9.10;7.28;;;21.80;61.30;;;;;;5054275;28;20036;-71
2021/09/12 02:00:58;;;;;;;7.85;6.57;;;21.80;61.50;;;;;;5054332;28;20025;-71
2021/09/12 02:03:24;;;;;;;10.18;6.80;;;21.80;61.40;;;;;;5054427;28;20057;-71
2021/09/12 02:05:50;;;;;;;9.27;7.35;;;21.80;61.40;;;;;;5051949;28;20035;-71
2021/09/12 02:08:16;;;;;;;10.57;6.85;;;21.70;61.30;;;;;;5054171;28;20028;-71
2021/09/12 02:10:43;;;;;;;12.68;7.00;;;21.70;61.40;;;;;;5053678;28;20036;-71
2021/09/12 02:13:11;;;;;;;10.18;7.18;;;21.70;61.50;;;;;;5054125;28;20098;-71
2021/09/12 02:15:38;;;;;;;10.85;7.78;;;21.70;61.60;;;;;;5053617;28;20382;-70
2021/09/12 02:18:03;;;;;;;9.02;7.10;;;21.60;61.50;;;;;;5054006;28;20040;-71
2021/09/12 02:20:29;;;;;;;8.40;6.90;;;21.60;61.50;;;;;;5053641;28;20025;-71
2021/09/12 02:22:55;;;;;;;7.53;6.80;;;21.60;61.70;;;;;;5053646;28;20021;-71
2021/09/12 02:25:21;;;;;;;8.70;7.78;;;21.60;61.60;;;;;;5053504;28;20390;-71
2021/09/12 02:27:47;;;;;;;8.73;7.82;;;21.60;61.70;;;;;;5053693;28;20128;-71
2021/09/12 02:30:13;;;;;;;12.45;8.77;;;21.60;61.80;;;;;;5053487;28;20553;-71
2021/09/12 02:32:39;;;;;;;10.88;8.20;;;21.60;61.80;;;;;;5053743;28;20545;-71
2021/09/12 02:35:05;;;;;;;15.75;8.25;;;21.60;61.80;;;;;;5052940;28;20021;-71
2021/09/12 02:37:31;;;;;;;10.63;7.55;;;21.50;61.80;;;;;;5053447;28;20033;-71
2021/09/12 02:39:57;;;;;;;9.60;7.53;;;21.50;61.90;;;;;;5053648;28;20021;-71
2021/09/12 02:42:23;;;;;;;13.80;8.07;;;21.50;62.00;;;;;;5042582;28;20478;-71
2021/09/12 02:44:48;;;;;;;9.85;8.30;;;21.50;62.10;;;;;;5050493;28;20090;-71
2021/09/12 02:47:14;;;;;;;10.70;8.05;;;21.50;62.00;;;;;;5053595;28;20448;-71
2021/09/12 02:49:40;;;;;;;12.25;8.68;;;21.50;62.00;;;;;;5052978;28;20097;-71
2021/09/12 02:52:06;;;;;;;9.98;7.70;;;21.50;62.10;;;;;;5053193;28;20056;-71
2021/09/12 02:54:32;;;;;;;10.25;8.05;;;21.50;62.10;;;;;;5034983;28;20031;-71
2021/09/12 02:56:57;;;;;;;11.25;8.48;;;21.50;62.10;;;;;;5052976;28;20112;-71
2021/09/12 02:59:23;;;;;;;10.50;8.82;;;21.50;62.30;;;;;;5052762;28;20095;-71
2021/09/12 03:01:49;;;;;;;9.55;8.48;;;21.50;62.20;;;;;;5052930;28;20386;-71
2021/09/12 03:04:15;;;;;;;9.55;8.27;;;21.40;62.20;;;;;;5052986;28;20033;-71
2021/09/12 03:06:40;;;;;;;12.93;9.07;;;21.40;62.20;;;;;;5052930;28;20029;-71
2021/09/12 03:09:06;;;;;;;9.85;8.85;;;21.40;62.40;;;;;;5053065;28;20020;-71
2021/09/12 03:11:32;;;;;;;9.73;8.65;;;21.40;62.60;;;;;;5052484;28;20021;-71
2021/09/12 03:13:58;;;;;;;17.23;9.13;;;21.40;62.50;;;;;;5052852;28;20382;-71
2021/09/12 03:16:24;;;;;;;11.80;8.52;;;21.40;62.50;;;;;;5052281;28;20025;-71
2021/09/12 03:18:50;;;;;;;11.68;7.63;;;21.40;62.60;;;;;;5052831;28;20493;-71
2021/09/12 03:21:16;;;;;;;10.75;9.20;;;21.40;62.80;;;;;;5052260;28;20021;-71
2021/09/12 03:23:42;;;;;;;17.05;8.18;;;21.40;63.10;;;;;;5052408;28;20067;-71
2021/09/12 03:26:08;;;;;;;9.43;8.13;;;21.40;62.90;;;;;;5052267;28;20068;-71
2021/09/12 03:28:34;;;;;;;11.85;7.70;;;21.40;62.90;;;;;;5052472;28;20033;-71
2021/09/12 03:30:59;;;;;;;12.73;8.70;;;21.40;62.80;;;;;;5051883;28;20112;-71
2021/09/12 03:33:25;;;;;;;8.40;7.53;;;21.40;62.80;;;;;;5052589;28;20102;-71
2021/09/12 03:35:51;;;;;;;10.52;8.45;;;21.50;62.80;;;;;;5052471;28;20016;-71
2021/09/12 03:38:17;;;;;;;9.77;7.13;;;21.40;62.70;;;;;;5052222;28;20017;-71
2021/09/12 03:40:42;;;;;;;8.80;7.93;;;21.50;62.80;;;;;;5039829;28;20139;-71
2021/09/12 03:43:08;;;;;;;9.20;8.13;;;21.50;62.90;;;;;;5034417;28;20094;-72
2021/09/12 03:45:34;;;;;;;9.40;7.53;;;21.50;63.00;;;;;;5052220;28;20028;-71
2021/09/12 03:48:00;;;;;;;8.38;7.28;;;21.50;63.00;;;;;;5052051;28;20040;-71
2021/09/12 03:50:26;;;;;;;8.50;7.05;;;21.50;63.00;;;;;;5051877;28;20469;-71
2021/09/12 03:52:53;;;;;;;10.68;7.97;;;21.50;63.00;;;;;;5051902;28;20037;-71
2021/09/12 03:55:19;;;;;;;10.07;7.00;;;21.50;63.00;;;;;;5052008;28;20025;-72
2021/09/12 03:57:44;;;;;;;8.48;7.57;;;21.40;62.90;;;;;;5052233;28;20025;-71
2021/09/12 04:00:11;;;;;;;10.20;7.88;;;21.50;63.00;;;;;;5051121;28;20047;-71
2021/09/12 04:02:37;;;;;;;10.10;8.80;;;21.50;63.20;;;;;;5034242;28;20040;-71
2021/09/12 04:05:04;;;;;;;16.33;8.77;;;21.50;63.40;;;;;;5051984;28;20021;-71
2021/09/12 04:07:29;;;;;;;10.70;8.48;;;21.50;63.40;;;;;;5051792;28;20029;-71
2021/09/12 04:09:56;;;;;;;8.13;7.28;;;21.50;63.40;;;;;;5051750;28;20025;-71
2021/09/12 04:12:21;;;;;;;8.60;7.65;;;21.50;63.30;;;;;;5040449;28;20021;-71
2021/09/12 04:14:47;;;;;;;8.77;7.75;;;21.50;63.40;;;;;;5033779;28;20051;-71
2021/09/12 04:17:14;;;;;;;8.68;7.43;;;21.50;63.40;;;;;;5052031;28;20017;-71
2021/09/12 04:19:40;;;;;;;10.80;8.15;;;21.50;63.40;;;;;;5051784;28;20378;-71
2021/09/12 04:22:06;;;;;;;10.60;8.55;;;21.50;63.20;;;;;;5035631;28;20116;-71
2021/09/12 04:24:32;;;;;;;10.68;8.35;;;21.50;63.20;;;;;;5051351;28;20438;-72
2021/09/12 04:26:58;;;;;;;9.45;8.20;;;21.60;63.50;;;;;;5051682;28;20501;-72
2021/09/12 04:29:24;;;;;;;10.32;8.38;;;21.60;63.50;;;;;;5050897;28;20017;-72
2021/09/12 04:31:49;;;;;;;11.73;7.97;;;21.60;63.50;;;;;;5051381;28;20521;-71
2021/09/12 04:34:16;;;;;;;8.55;7.70;;;21.60;63.50;;;;;;5051191;28;20496;-71
2021/09/12 04:36:42;;;;;;;10.73;7.85;;;21.60;63.50;;;;;;5037274;28;20541;-71
2021/09/12 04:39:08;;;;;;;8.20;7.40;;;21.60;63.30;;;;;;5035429;28;20031;-71
2021/09/12 04:41:34;;;;;;;8.90;8.00;;;21.60;63.20;;;;;;5047521;28;20053;-71
2021/09/12 04:43:59;;;;;;;16.50;9.75;;;21.70;63.30;;;;;;5047422;28;20513;-71
2021/09/12 04:46:25;;;;;;;31.95;12.40;;;21.70;63.30;;;;;;5051325;28;20442;-71
2021/09/12 04:48:51;;;;;;;21.98;10.35;;;21.70;63.30;;;;;;5051432;28;20037;-71
2021/09/12 04:51:17;;;;;;;23.20;11.85;;;21.70;63.30;;;;;;5051700;28;20120;-71
2021/09/12 04:53:42;;;;;;;31.60;13.30;;;21.70;63.50;;;;;;5051681;28;20017;-72
2021/09/12 04:56:08;;;;;;;26.80;12.88;;;21.70;63.40;;;;;;5050873;28;20103;-72
2021/09/12 04:58:34;;;;;;;27.30;11.35;;;21.80;63.40;;;;;;5051383;28;20041;-72
2021/09/12 05:01:00;;;;;;;26.35;12.50;;;21.80;64.20;;;;;;5051061;28;20021;-71
2021/09/12 05:03:26;;;;;;;17.10;9.73;;;21.80;63.40;;;;;;5051183;28;20470;-71
2021/09/12 05:05:52;;;;;;;14.23;10.00;;;21.80;63.40;;;;;;5051076;28;20031;-71
2021/09/12 05:08:18;;;;;;;16.73;10.07;;;21.80;63.30;;;;;;5051368;28;20082;-72
2021/09/12 05:10:43;;;;;;;13.32;9.35;;;21.80;63.30;;;;;;5038909;28;20029;-71
2021/09/12 05:13:09;;;;;;;22.20;8.63;;;21.80;63.30;;;;;;5044922;28;20021;-71
2021/09/12 05:15:35;;;;;;;15.80;9.30;;;21.80;63.30;;;;;;5033389;28;20094;-72
2021/09/12 05:18:00;;;;;;;15.50;8.88;;;21.90;63.40;;;;;;5050259;28;20025;-71
2021/09/12 05:20:26;;;;;;;16.45;8.20;;;21.90;63.40;;;;;;5051146;28;20108;-72
2021/09/12 05:22:52;;;;;;;10.90;8.20;;;21.90;63.40;;;;;;5038511;28;20483;-72
2021/09/12 05:25:18;;;;;;;9.52;7.40;;;21.90;63.40;;;;;;5051155;28;20044;-71
2021/09/12 05:27:44;;;;;;;9.35;7.85;;;21.90;63.30;;;;;;5040321;28;20017;-72
2021/09/12 05:30:10;;;;;;;9.45;7.82;;;21.90;63.20;;;;;;5050369;28;20029;-71
2021/09/12 05:32:36;;;;;;;9.80;7.55;;;21.90;63.20;;;;;;5051336;28;20032;-72
2021/09/12 05:35:03;;;;;;;10.98;8.27;;;21.90;63.30;;;;;;5051500;28;20035;-72
2021/09/12 05:37:29;;;;;;;11.20;8.18;;;21.90;63.40;;;;;;5052015;28;20033;-71
2021/09/12 05:39:55;;;;;;;10.68;9.18;;;22.00;63.50;;;;;;5053903;28;20025;-71
2021/09/12 05:42:21;;;;;;;11.13;7.60;;;22.00;63.50;;;;;;5055106;28;20074;-71
2021/09/12 05:44:46;;;;;;;13.02;8.40;;;22.00;63.40;;;;;;5055536;28;20075;-71
2021/09/12 05:47:12;;;;;;;13.10;9.60;;;22.00;63.30;;;;;;5054527;28;20415;-71
2021/09/12 05:49:38;;;;;;;12.43;8.55;;;22.00;63.20;;;;;;5055380;28;20028;-73
2021/09/12 05:52:04;;;;;;;10.65;8.82;;;22.10;63.20;;;;;;5037765;28;20478;-72
2021/09/12 05:54:30;;;;;;;14.20;9.30;;;22.10;63.20;;;;;;5063949;28;20444;-71
2021/09/12 05:56:56;;;;;;;11.80;9.43;;;22.20;63.20;;;;;;5053842;28;20055;-71
2021/09/12 05:59:22;;;;;;;16.17;10.30;;;22.20;63.00;;;;;;5052175;28;20032;-71
2021/09/12 06:01:48;;;;;;;12.95;9.18;;;22.20;62.80;;;;;;5053986;28;20017;-71
2021/09/12 06:04:13;;;;;;;14.13;11.07;;;22.30;62.80;;;;;;5053915;28;20029;-71
2021/09/12 06:06:39;;;;;;;16.27;10.13;;;22.40;62.70;;;;;;5055117;28;20021;-71
2021/09/12 06:09:05;;;;;;;12.50;11.00;;;22.40;62.50;;;;;;5054585;28;20043;-71
2021/09/12 06:11:31;;;;;;;14.13;10.65;;;22.40;62.30;;;;;;5054332;28;20056;-71
2021/09/12 06:13:57;;;;;;;13.88;10.77;;;22.50;62.20;;;;;;5054588;28;20013;-71
2021/09/12 06:16:22;;;;;;;14.90;11.35;;;22.60;62.10;;;;;;5054505;28;20039;-71
2021/09/12 06:18:48;;;;;;;14.13;10.25;;;22.60;62.00;;;;;;5054593;28;20107;-72
2021/09/12 06:21:14;;;;;;;18.42;10.93;;;22.70;61.90;;;;;;5054552;28;20032;-71
2021/09/12 06:23:40;;;;;;;13.13;8.75;;;22.70;61.70;;;;;;5036760;28;20025;-71
2021/09/12 06:26:06;;;;;;;24.33;10.85;;;22.80;61.70;;;;;;5055058;28;20474;-71
2021/09/12 06:28:31;;;;;;;15.35;9.80;;;22.80;61.50;;;;;;5053980;28;20054;-72
2021/09/12 06:30:59;;;;;;;15.75;10.90;;;22.90;61.40;;;;;;5054092;28;20395;-71
2021/09/12 06:33:25;;;;;;;12.63;9.00;;;23.00;61.30;;;;;;5034908;28;20067;-72
2021/09/12 06:35:51;;;;;;;12.48;10.23;;;23.00;61.20;;;;;;5041177;28;20036;-71
2021/09/12 06:38:17;;;;;;;19.63;10.75;;;23.10;61.10;;;;;;5054582;28;20391;-72
2021/09/12 06:40:43;;;;;;;14.07;11.07;;;23.20;60.90;;;;;;5036506;28;20032;-72
2021/09/12 06:43:08;;;;;;;14.65;10.57;;;23.30;60.60;;;;;;5040361;28;20049;-72
2021/09/12 06:45:34;;;;;;;10.85;9.20;;;23.30;60.30;;;;;;5053609;28;20078;-71
2021/09/12 06:48:00;;;;;;;16.10;10.57;;;23.40;60.30;;;;;;5053856;28;20017;-71
2021/09/12 06:50:27;;;;;;;16.75;10.63;;;23.40;60.00;;;;;;5053502;28;20410;-71
2021/09/12 06:52:52;;;;;;;13.25;9.40;;;23.50;59.70;;;;;;5054215;28;20028;-71
2021/09/12 06:55:19;;;;;;;14.05;10.07;;;23.60;59.80;;;;;;5036563;28;20032;-71
2021/09/12 06:57:45;;;;;;;18.90;11.02;;;23.70;59.60;;;;;;5055110;28;20052;-71
2021/09/12 07:00:11;;;;;;;14.30;11.10;;;23.70;59.30;;;;;;5054072;28;20056;-71
2021/09/12 07:02:38;;;;;;;14.40;11.00;;;23.80;59.10;;;;;;5053805;28;20059;-71
2021/09/12 07:05:07;;;;;;;13.75;10.95;;;23.90;58.90;;;;;;5053881;28;20013;-71
2021/09/12 07:07:33;;;;;;;15.10;11.20;;;23.90;58.90;;;;;;5053914;28;20025;-71
2021/09/12 07:09:59;;;;;;;11.75;10.20;;;24.00;58.70;;;;;;5053782;28;20021;-71
2021/09/12 07:12:25;;;;;;;12.00;10.35;;;24.10;58.60;;;;;;5053954;28;20082;-72
2021/09/12 07:14:51;;;;;;;13.68;11.23;;;24.20;58.30;;;;;;5035963;28;20064;-71
2021/09/12 07:17:17;;;;;;;14.13;10.68;;;24.30;58.20;;;;;;5053978;28;20059;-71
2021/09/12 07:19:43;;;;;;;12.50;10.85;;;24.40;58.00;;;;;;5053609;28;20029;-71
2021/09/12 07:22:09;;;;;;;18.00;12.20;;;24.40;57.90;;;;;;5053602;28;20033;-72
2021/09/12 07:24:35;;;;;;;12.68;11.23;;;24.50;57.40;;;;;;5053535;28;20413;-72
2021/09/12 07:27:01;;;;;;;12.43;11.10;;;24.60;57.30;;;;;;5053317;28;20013;-71
2021/09/12 07:29:26;;;;;;;13.57;11.57;;;24.70;57.10;;;;;;5035654;28;20017;-72
2021/09/12 07:31:54;;;;;;;13.40;10.85;;;24.70;56.70;;;;;;5053356;28;20517;-72
2021/09/12 07:34:20;;;;;;;16.63;11.95;;;24.70;56.70;;;;;;5053513;28;20450;-71
2021/09/12 07:36:45;;;;;;;15.52;11.07;;;24.80;56.40;;;;;;5035464;28;20112;-71
2021/09/12 07:39:11;;;;;;;18.50;12.38;;;24.80;56.20;;;;;;5053380;28;20025;-71
2021/09/12 07:41:39;;;;;;;14.85;11.13;;;24.80;56.20;;;;;;5053387;28;20025;-71
2021/09/12 07:44:05;;;;;;;13.15;10.70;;;24.80;56.40;;;;;;5053144;28;20017;-71
2021/09/12 07:46:30;;;;;;;12.65;11.25;;;24.70;56.60;;;;;;5052917;28;20038;-71
2021/09/12 07:48:56;;;;;;;13.60;11.70;;;24.70;57.20;;;;;;5053024;28;20021;-72
2021/09/12 07:51:22;;;;;;;27.80;12.50;;;24.60;57.40;;;;;;5053110;28;20091;-71
2021/09/12 07:53:48;;;;;;;20.05;13.05;;;24.60;58.20;;;;;;5053076;28;20100;-71
2021/09/12 07:56:14;;;;;;;16.77;12.63;;;24.60;58.90;;;;;;5052986;28;20040;-71
2021/09/12 07:58:39;;;;;;;24.45;13.15;;;24.50;59.20;;;;;;5053027;28;20040;-71
2021/09/12 08:01:05;;;;;;;17.38;11.85;;;24.50;59.60;;;;;;5052921;28;20024;-71
2021/09/12 08:03:31;;;;;;;14.48;10.93;;;24.40;59.90;;;;;;5042185;28;20040;-71
2021/09/12 08:05:57;;;;;;;18.27;12.30;;;24.30;59.90;;;;;;5052746;28;20055;-71
2021/09/12 08:08:23;;;;;;;14.40;11.05;;;24.30;60.20;;;;;;5052858;28;20475;-71
2021/09/12 08:10:49;;;;;;;17.20;12.07;;;24.30;60.50;;;;;;5053126;28;20017;-71
2021/09/12 08:13:14;;;;;;;16.13;10.90;;;24.30;60.50;;;;;;5052675;28;20351;-72
2021/09/12 08:15:40;;;;;;;15.05;11.45;;;24.30;60.40;;;;;;5053081;28;20100;-71
2021/09/12 08:18:06;;;;;;;17.05;11.07;;;24.30;60.20;;;;;;5052532;28;20083;-72
2021/09/12 08:20:32;;;;;;;15.35;12.10;;;24.40;60.00;;;;;;5052703;28;20037;-72
2021/09/12 08:22:58;;;;;;;14.27;10.98;;;24.40;59.50;;;;;;5052630;28;20061;-71
2021/09/12 08:25:24;;;;;;;12.93;11.23;;;24.40;60.00;;;;;;5052683;28;20065;-72
2021/09/12 08:27:50;;;;;;;14.50;11.02;;;24.50;59.40;;;;;;5052577;28;20009;-72
2021/09/12 08:30:16;;;;;;;15.40;11.45;;;24.60;59.50;;;;;;5052387;28;20517;-71
2021/09/12 08:32:43;;;;;;;17.10;11.32;;;24.70;59.60;;;;;;5052529;28;20386;-72
2021/09/12 08:35:09;;;;;;;12.75;10.68;;;24.80;59.40;;;;;;5052543;28;20101;-71
2021/09/12 08:37:35;;;;;;;14.13;11.50;;;24.90;58.90;;;;;;5034440;28;20500;-72
2021/09/12 08:40:02;;;;;;;13.27;11.73;;;25.00;58.60;;;;;;5052410;28;20103;-72
2021/09/12 08:42:29;;;;;;;12.90;11.32;;;25.10;58.10;;;;;;5052377;28;20036;-72
2021/09/12 08:44:55;;;;;;;17.08;12.38;;;25.30;57.80;;;;;;5052307;28;20158;-71
2021/09/12 08:47:21;;;;;;;14.05;11.27;;;25.40;57.60;;;;;;5052278;28;20578;-72
2021/09/12 08:49:48;;;;;;;13.57;11.13;;;25.50;57.60;;;;;;5052459;28;20028;-72
2021/09/12 08:52:14;;;;;;;18.05;10.90;;;25.70;57.90;;;;;;5052263;28;20040;-71
2021/09/12 08:54:41;;;;;;;12.68;10.20;;;25.80;57.50;;;;;;5052249;28;20021;-72
2021/09/12 08:57:07;;;;;;;17.48;11.55;;;25.90;57.40;;;;;;5035933;28;20017;-72
2021/09/12 08:59:35;;;;;;;15.80;12.23;;;26.00;57.00;;;;;;5034463;28;20360;-71
2021/09/12 09:02:03;;;;;;;12.82;11.50;;;26.20;56.90;;;;;;5047074;28;20383;-72
2021/09/12 09:04:35;;;;;;;13.18;11.73;;;26.30;56.30;;;;;;5047123;28;20025;-72
2021/09/12 09:07:09;;;;;;;12.73;11.02;;;26.40;56.20;;;;;;5034192;28;20021;-71
2021/09/12 09:09:46;;;;;;;14.98;12.05;;;26.40;56.40;;;;;;5052282;28;20021;-72
2021/09/12 09:12:41;;;;;;;16.25;12.95;;;26.50;55.70;;;;;;5051965;28;20107;-71
2021/09/12 09:15:16;;;;;;;16.55;12.00;;;26.60;55.50;;;;;;5038475;28;20385;-72
2021/09/12 09:17:43;;;;;;;13.07;11.35;;;26.60;54.50;;;;;;5037837;28;20028;-71
2021/09/12 09:20:13;;;;;;;12.32;10.90;;;26.70;54.70;;;;;;5037967;28;20068;-71
2021/09/12 09:22:41;;;;;;;12.93;10.90;;;26.70;54.70;;;;;;5056023;28;20079;-72
2021/09/12 09:25:27;;;;;;;12.48;11.18;;;26.80;54.70;;;;;;5055762;28;20096;-72
2021/09/12 09:28:00;;;;;;;13.75;11.40;;;26.80;54.70;;;;;;5055642;28;20013;-71
2021/09/12 09:30:31;;;;;;;15.35;12.85;;;26.90;54.90;;;;;;5055678;28;20390;-72
2021/09/12 09:33:14;;;;;;;14.68;12.07;;;26.90;54.40;;;;;;5048066;28;20075;-72
2021/09/12 09:35:51;;;;;;;12.60;11.18;;;26.90;54.20;;;;;;5054833;28;20017;-72
2021/09/12 09:38:20;;;;;;;14.32;12.10;;;26.90;54.10;;;;;;5037831;28;20339;-72
2021/09/12 09:41:17;;;;;;;15.07;13.02;;;26.90;54.10;;;;;;5055483;28;20037;-72
2021/09/12 09:43:53;;;;;;;16.15;13.35;;;26.90;54.00;;;;;;5055564;28;20107;-72
2021/09/12 09:46:39;;;;;;;22.27;19.50;;;26.90;53.80;;;;;;5055581;28;20138;-71
2021/09/12 09:49:20;;;;;;;20.50;13.45;;;26.90;54.20;;;;;;5055420;28;20074;-71
2021/09/12 09:51:53;;;;;;;15.15;13.23;;;26.90;54.10;;;;;;5055366;28;20104;-72
2021/09/12 09:54:24;;;;;;;16.42;11.95;;;26.90;53.70;;;;;;5055428;28;20029;-72
2021/09/12 09:56:51;;;;;;;14.35;12.02;;;26.90;53.80;;;;;;5055303;28;20028;-72
2021/09/12 09:59:20;;;;;;;14.95;12.30;;;26.90;53.70;;;;;;5037641;28;20021;-72
2021/09/12 10:01:51;;;;;;;15.95;12.77;;;26.80;53.70;;;;;;5054992;28;20490;-71
2021/09/12 10:04:18;;;;;;;16.17;12.63;;;26.80;53.80;;;;;;5055007;28;20052;-72
2021/09/12 10:06:46;;;;;;;13.80;12.05;;;26.80;54.10;;;;;;5055081;28;20021;-72
2021/09/12 10:09:13;;;;;;;16.85;13.70;;;26.80;53.80;;;;;;5055082;28;20108;-71
2021/09/12 10:11:47;;;;;;;13.45;12.05;;;26.80;53.40;;;;;;5055049;28;20009;-72
2021/09/12 10:14:18;;;;;;;13.05;10.98;;;26.70;53.80;;;;;;5054944;28;20489;-71
2021/09/12 10:16:47;;;;;;;14.57;12.48;;;26.70;54.00;;;;;;5051684;28;20032;-72
2021/09/12 10:19:31;;;;;;;11.95;10.75;;;26.70;53.60;;;;;;5054957;28;20032;-72
2021/09/12 10:22:00;;;;;;;16.30;11.10;;;26.70;53.60;;;;;;5054773;28;20024;-72
2021/09/12 10:24:26;;;;;;;12.75;11.23;;;26.70;53.40;;;;;;5036835;28;20434;-72
2021/09/12 10:26:52;;;;;;;13.25;11.50;;;26.60;53.50;;;;;;5053500;28;20029;-72
2021/09/12 10:29:43;;;;;;;13.57;10.70;;;26.60;53.60;;;;;;5036783;28;20017;-72
2021/09/12 10:32:34;;;;;;;12.48;10.27;;;26.60;53.90;;;;;;5054498;28;20060;-71
2021/09/12 10:35:26;;;;;;;13.57;11.27;;;26.60;54.20;;;;;;5037070;28;20387;-72
2021/09/12 10:37:59;;;;;;;14.85;12.50;;;26.60;54.00;;;;;;5054417;28;20090;-71
2021/09/12 10:40:44;;;;;;;15.68;12.27;;;26.60;53.50;;;;;;5054470;28;20073;-72
2021/09/12 10:43:30;;;;;;;13.15;11.10;;;26.60;53.30;;;;;;5038457;28;20032;-71
2021/09/12 10:46:05;;;;;;;10.95;9.63;;;26.60;52.90;;;;;;5053953;28;20021;-71
2021/09/12 10:48:34;;;;;;;15.02;11.60;;;26.60;53.10;;;;;;5054362;28;20021;-72
2021/09/12 10:51:02;;;;;;;13.48;11.85;;;26.70;53.10;;;;;;5054234;28;20017;-72
2021/09/12 10:53:44;;;;;;;14.18;12.35;;;26.70;53.30;;;;;;5036302;28;20091;-71
2021/09/12 10:56:10;;;;;;;15.35;12.73;;;26.70;53.30;;;;;;5054092;28;20029;-71
2021/09/12 10:58:36;;;;;;;14.32;12.25;;;26.70;53.30;;;;;;5054070;28;20025;-72
2021/09/12 11:01:04;;;;;;;12.52;11.23;;;26.70;53.20;;;;;;5053987;28;20774;-71
2021/09/12 11:03:30;;;;;;;13.30;11.90;;;26.70;53.30;;;;;;5053805;28;20053;-72
2021/09/12 11:05:56;;;;;;;14.38;12.13;;;26.70;53.30;;;;;;5035926;28;20070;-72
2021/09/12 11:08:52;;;;;;;16.42;12.40;;;26.70;53.40;;;;;;5053868;28;20025;-71
2021/09/12 11:11:18;;;;;;;12.88;10.63;;;26.70;53.00;;;;;;5030003;28;20470;-71
2021/09/12 11:13:44;;;;;;;11.38;9.60;;;26.70;53.10;;;;;;5053734;28;20086;-72
2021/09/12 11:16:22;;;;;;;16.00;11.60;;;26.70;53.10;;;;;;5053593;28;20112;-72
2021/09/12 11:19:00;;;;;;;11.75;10.40;;;26.70;52.60;;;;;;5035863;28;20363;-72
2021/09/12 11:21:29;;;;;;;10.55;9.30;;;26.70;52.40;;;;;;5053828;28;20056;-72
2021/09/12 11:24:16;;;;;;;8.77;7.88;;;26.70;52.30;;;;;;5035777;28;20024;-71
2021/09/12 11:26:55;;;;;;;7.18;6.47;;;26.70;52.40;;;;;;5053000;28;20091;-71
2021/09/12 11:29:32;;;;;;;11.10;9.85;;;26.70;52.60;;;;;;5053657;28;20051;-71
2021/09/12 11:32:10;;;;;;;10.48;9.13;;;26.70;53.00;;;;;;5053358;28;20045;-72
2021/09/12 11:34:39;;;;;;;12.73;8.77;;;26.70;53.00;;;;;;5053344;28;20025;-71
2021/09/12 11:37:07;;;;;;;10.55;8.80;;;26.80;53.00;;;;;;5035219;28;20079;-72
2021/09/12 11:39:39;;;;;;;8.02;7.22;;;26.80;52.20;;;;;;5035455;28;20029;-71
2021/09/12 11:42:07;;;;;;;7.63;6.35;;;26.80;52.40;;;;;;5053170;28;20024;-71
2021/09/12 11:44:44;;;;;;;9.00;6.43;;;26.80;51.20;;;;;;5053168;28;20025;-72
2021/09/12 11:47:21;;;;;;;7.35;6.60;;;26.90;51.30;;;;;;5037311;28;20075;-71
2021/09/12 11:50:00;;;;;;;7.57;6.40;;;26.90;51.50;;;;;;5053198;28;20371;-72
2021/09/12 11:52:31;;;;;;;8.02;6.40;;;26.90;51.10;;;;;;5053182;28;20028;-72
2021/09/12 11:54:57;;;;;;;6.13;5.53;;;26.90;50.80;;;;;;5035058;28;20394;-71
2021/09/12 11:57:23;;;;;;;6.72;4.82;;;27.00;51.10;;;;;;5053013;28;20021;-72
2021/09/12 11:59:50;;;;;;;5.85;5.25;;;26.90;50.20;;;;;;5053014;28;20029;-71
2021/09/12 12:02:22;;;;;;;9.57;5.93;;;26.90;50.00;;;;;;5052690;28;20474;-71
2021/09/12 12:04:49;;;;;;;7.00;5.53;;;27.00;50.80;;;;;;5034953;28;20457;-72
2021/09/12 12:07:17;;;;;;;8.38;5.00;;;27.00;49.60;;;;;;5052846;28;20013;-71
2021/09/12 12:09:46;;;;;;;5.55;4.35;;;27.00;48.60;;;;;;5052557;28;20017;-71
2021/09/12 12:12:20;;;;;;;5.25;4.25;;;27.00;49.20;;;;;;5052698;28;20421;-72
2021/09/12 12:14:49;;;;;;;4.80;4.40;;;27.10;48.80;;;;;;5052689;28;20071;-72
2021/09/12 12:17:17;;;;;;;5.00;4.00;;;27.10;48.40;;;;;;5052697;28;20013;-71
2021/09/12 12:19:44;;;;;;;4.80;4.38;;;27.10;48.30;;;;;;5052674;28;20029;-71
2021/09/12 12:22:10;;;;;;;4.68;4.10;;;27.20;48.00;;;;;;5052563;28;20021;-72
2021/09/12 12:24:47;;;;;;;6.60;3.75;;;27.20;47.90;;;;;;5052530;28;20074;-72
2021/09/12 12:27:15;;;;;;;5.00;4.47;;;27.20;47.20;;;;;;5037004;28;20379;-72
2021/09/12 12:29:43;;;;;;;4.03;3.60;;;27.30;47.60;;;;;;5052599;28;20071;-71
2021/09/12 12:32:11;;;;;;;4.55;3.55;;;27.40;47.30;;;;;;5052387;28;20498;-72
2021/09/12 12:34:50;;;;;;;6.72;3.97;;;27.40;47.00;;;;;;5052484;28;20102;-71
2021/09/12 12:37:19;;;;;;;5.05;3.83;;;27.50;46.90;;;;;;5037407;28;20025;-72
2021/09/12 12:40:00;;;;;;;4.47;3.80;;;27.60;46.90;;;;;;5052557;28;20017;-72